sensor_id;sensor_type;location;lat;lon;timestamp;P1;durP1;ratioP1;P2;durP2;ratioP2
21474;SDS011;10899;53.576;9.960;2022-07-23T00:01:35;6.72;;;2.85;;
21474;SDS011;10899;53.576;9.960;2022-07-23T00:04:02;11.48;;;3.15;;
21474;SDS011;10899;53.576;9.960;2022-07-23T00:06:28;7.78;;;3.00;;
21474;SDS011;10899;53.576;9.960;2022-07-23T00:08:55;8.00;;;3.15;;
21474;SDS011;10899;53.576;9.960;2022-07-23T00:11:21;7.25;;;3.00;;
21474;SDS011;10899;53.576;9.960;2022-07-23T00:13:48;7.18;;;3.40;;
21474;SDS011;10899;53.576;9.960;2022-07-23T00:16:15;8.40;;;3.53;;
21474;SDS011;10899;53.576;9.960;2022-07-23T00:18:41;8.65;;;3.03;;
21474;SDS011;10899;53.576;9.960;2022-07-23T00:21:09;10.07;;;3.15;;
21474;SDS011;10899;53.576;9.960;2022-07-23T00:23:35;7.90;;;3.17;;
21474;SDS011;10899;53.576;9.960;2022-07-23T00:26:02;8.32;;;3.17;;
21474;SDS011;10899;53.576;9.960;2022-07-23T00:28:28;9.00;;;3.22;;
21474;SDS011;10899;53.576;9.960;2022-07-23T00:30:55;7.63;;;3.10;;
21474;SDS011;10899;53.576;9.960;2022-07-23T00:33:22;9.63;;;3.30;;
21474;SDS011;10899;53.576;9.960;2022-07-23T00:35:48;12.88;;;3.47;;
21474;SDS011;10899;53.576;9.960;2022-07-23T00:38:15;9.27;;;3.80;;
21474;SDS011;10899;53.576;9.960;2022-07-23T00:40:41;10.38;;;3.80;;
21474;SDS011;10899;53.576;9.960;2022-07-23T00:43:08;11.55;;;4.18;;
21474;SDS011;10899;53.576;9.960;2022-07-23T00:45:34;11.27;;;3.97;;
21474;SDS011;10899;53.576;9.960;2022-07-23T00:48:01;7.70;;;3.78;;
21474;SDS011;10899;53.576;9.960;2022-07-23T00:50:27;12.02;;;4.28;;
21474;SDS011;10899;53.576;9.960;2022-07-23T00:52:54;9.57;;;3.92;;
21474;SDS011;10899;53.576;9.960;2022-07-23T00:55:21;9.10;;;4.20;;
21474;SDS011;10899;53.576;9.960;2022-07-23T00:57:47;11.45;;;4.35;;
21474;SDS011;10899;53.576;9.960;2022-07-23T01:00:15;9.90;;;3.95;;
21474;SDS011;10899;53.576;9.960;2022-07-23T01:02:42;7.55;;;3.83;;
21474;SDS011;10899;53.576;9.960;2022-07-23T01:05:09;7.63;;;3.83;;
21474;SDS011;10899;53.576;9.960;2022-07-23T01:07:36;7.85;;;3.65;;
21474;SDS011;10899;53.576;9.960;2022-07-23T01:10:02;10.77;;;3.92;;
21474;SDS011;10899;53.576;9.960;2022-07-23T01:12:29;8.50;;;4.03;;
21474;SDS011;10899;53.576;9.960;2022-07-23T01:14:59;7.35;;;3.50;;
21474;SDS011;10899;53.576;9.960;2022-07-23T01:17:26;8.48;;;3.78;;
21474;SDS011;10899;53.576;9.960;2022-07-23T01:19:53;9.90;;;3.83;;
21474;SDS011;10899;53.576;9.960;2022-07-23T01:22:19;9.77;;;3.75;;
21474;SDS011;10899;53.576;9.960;2022-07-23T01:24:46;18.48;;;4.38;;
21474;SDS011;10899;53.576;9.960;2022-07-23T01:27:13;9.43;;;3.25;;
21474;SDS011;10899;53.576;9.960;2022-07-23T01:29:40;8.02;;;3.40;;
21474;SDS011;10899;53.576;9.960;2022-07-23T01:32:06;9.00;;;3.75;;
21474;SDS011;10899;53.576;9.960;2022-07-23T01:34:33;9.40;;;3.58;;
21474;SDS011;10899;53.576;9.960;2022-07-23T01:36:59;8.13;;;3.53;;
21474;SDS011;10899;53.576;9.960;2022-07-23T01:39:26;11.40;;;3.70;;
21474;SDS011;10899;53.576;9.960;2022-07-23T01:41:53;8.70;;;3.58;;
21474;SDS011;10899;53.576;9.960;2022-07-23T01:44:19;6.88;;;3.42;;
21474;SDS011;10899;53.576;9.960;2022-07-23T01:46:46;8.60;;;3.80;;
21474;SDS011;10899;53.576;9.960;2022-07-23T01:49:12;6.93;;;3.13;;
21474;SDS011;10899;53.576;9.960;2022-07-23T01:51:39;6.55;;;3.58;;
21474;SDS011;10899;53.576;9.960;2022-07-23T01:54:26;8.48;;;3.40;;
21474;SDS011;10899;53.576;9.960;2022-07-23T01:56:53;7.60;;;3.22;;
21474;SDS011;10899;53.576;9.960;2022-07-23T01:59:20;11.23;;;3.40;;
21474;SDS011;10899;53.576;9.960;2022-07-23T02:01:46;7.70;;;3.00;;
21474;SDS011;10899;53.576;9.960;2022-07-23T02:04:16;6.50;;;3.17;;
21474;SDS011;10899;53.576;9.960;2022-07-23T02:06:43;6.18;;;3.10;;
21474;SDS011;10899;53.576;9.960;2022-07-23T02:09:09;9.23;;;3.53;;
21474;SDS011;10899;53.576;9.960;2022-07-23T02:11:36;8.27;;;3.38;;
21474;SDS011;10899;53.576;9.960;2022-07-23T02:14:02;5.97;;;2.92;;
21474;SDS011;10899;53.576;9.960;2022-07-23T02:16:29;8.00;;;3.35;;
21474;SDS011;10899;53.576;9.960;2022-07-23T02:18:56;6.57;;;3.10;;
21474;SDS011;10899;53.576;9.960;2022-07-23T02:21:22;8.50;;;3.00;;
21474;SDS011;10899;53.576;9.960;2022-07-23T02:23:49;10.10;;;3.00;;
21474;SDS011;10899;53.576;9.960;2022-07-23T02:26:16;6.60;;;2.85;;
21474;SDS011;10899;53.576;9.960;2022-07-23T02:28:42;4.88;;;2.85;;
21474;SDS011;10899;53.576;9.960;2022-07-23T02:31:09;6.60;;;3.17;;
21474;SDS011;10899;53.576;9.960;2022-07-23T02:33:35;6.22;;;2.75;;
21474;SDS011;10899;53.576;9.960;2022-07-23T02:36:02;8.48;;;3.22;;
21474;SDS011;10899;53.576;9.960;2022-07-23T02:38:28;7.15;;;2.42;;
21474;SDS011;10899;53.576;9.960;2022-07-23T02:40:55;7.80;;;3.00;;
21474;SDS011;10899;53.576;9.960;2022-07-23T02:43:21;6.63;;;3.33;;
21474;SDS011;10899;53.576;9.960;2022-07-23T02:45:48;8.20;;;3.03;;
21474;SDS011;10899;53.576;9.960;2022-07-23T02:48:14;6.13;;;2.70;;
21474;SDS011;10899;53.576;9.960;2022-07-23T02:50:41;7.57;;;3.20;;
21474;SDS011;10899;53.576;9.960;2022-07-23T02:53:08;4.63;;;2.90;;
21474;SDS011;10899;53.576;9.960;2022-07-23T02:55:34;5.40;;;3.03;;
21474;SDS011;10899;53.576;9.960;2022-07-23T02:58:01;5.93;;;2.92;;
21474;SDS011;10899;53.576;9.960;2022-07-23T03:00:27;9.40;;;3.20;;
21474;SDS011;10899;53.576;9.960;2022-07-23T03:02:54;8.73;;;3.08;;
21474;SDS011;10899;53.576;9.960;2022-07-23T03:05:20;7.80;;;2.70;;
21474;SDS011;10899;53.576;9.960;2022-07-23T03:07:47;6.22;;;2.70;;
21474;SDS011;10899;53.576;9.960;2022-07-23T03:10:13;6.88;;;2.75;;
21474;SDS011;10899;53.576;9.960;2022-07-23T03:12:40;6.43;;;2.92;;
21474;SDS011;10899;53.576;9.960;2022-07-23T03:15:07;6.25;;;3.00;;
21474;SDS011;10899;53.576;9.960;2022-07-23T03:17:33;4.75;;;2.30;;
21474;SDS011;10899;53.576;9.960;2022-07-23T03:20:00;5.45;;;2.40;;
21474;SDS011;10899;53.576;9.960;2022-07-23T03:22:26;8.82;;;2.83;;
21474;SDS011;10899;53.576;9.960;2022-07-23T03:24:53;8.07;;;2.70;;
21474;SDS011;10899;53.576;9.960;2022-07-23T03:27:23;8.60;;;3.22;;
21474;SDS011;10899;53.576;9.960;2022-07-23T03:29:50;3.95;;;2.50;;
21474;SDS011;10899;53.576;9.960;2022-07-23T03:32:17;7.15;;;2.83;;
21474;SDS011;10899;53.576;9.960;2022-07-23T03:34:43;6.43;;;3.20;;
21474;SDS011;10899;53.576;9.960;2022-07-23T03:37:10;8.75;;;2.78;;
21474;SDS011;10899;53.576;9.960;2022-07-23T03:39:36;6.43;;;2.90;;
21474;SDS011;10899;53.576;9.960;2022-07-23T03:42:03;9.63;;;3.10;;
21474;SDS011;10899;53.576;9.960;2022-07-23T03:44:29;7.03;;;2.60;;
21474;SDS011;10899;53.576;9.960;2022-07-23T03:46:56;6.15;;;2.72;;
21474;SDS011;10899;53.576;9.960;2022-07-23T03:49:23;9.63;;;2.78;;
21474;SDS011;10899;53.576;9.960;2022-07-23T03:51:49;8.45;;;3.15;;
21474;SDS011;10899;53.576;9.960;2022-07-23T03:54:16;7.63;;;3.10;;
21474;SDS011;10899;53.576;9.960;2022-07-23T03:56:42;9.32;;;3.08;;
21474;SDS011;10899;53.576;9.960;2022-07-23T03:59:09;7.10;;;2.83;;
21474;SDS011;10899;53.576;9.960;2022-07-23T04:01:36;10.93;;;3.20;;
21474;SDS011;10899;53.576;9.960;2022-07-23T04:04:03;9.20;;;2.97;;
21474;SDS011;10899;53.576;9.960;2022-07-23T04:06:29;5.95;;;2.90;;
21474;SDS011;10899;53.576;9.960;2022-07-23T04:08:56;7.75;;;2.80;;
21474;SDS011;10899;53.576;9.960;2022-07-23T04:11:22;10.57;;;3.28;;
21474;SDS011;10899;53.576;9.960;2022-07-23T04:13:49;9.15;;;3.22;;
21474;SDS011;10899;53.576;9.960;2022-07-23T04:16:15;9.55;;;3.00;;
21474;SDS011;10899;53.576;9.960;2022-07-23T04:18:42;7.68;;;2.90;;
21474;SDS011;10899;53.576;9.960;2022-07-23T04:21:08;9.77;;;3.00;;
21474;SDS011;10899;53.576;9.960;2022-07-23T04:23:35;5.85;;;2.95;;
21474;SDS011;10899;53.576;9.960;2022-07-23T04:26:01;7.28;;;2.67;;
21474;SDS011;10899;53.576;9.960;2022-07-23T04:28:28;8.82;;;2.78;;
21474;SDS011;10899;53.576;9.960;2022-07-23T04:30:58;7.05;;;2.75;;
21474;SDS011;10899;53.576;9.960;2022-07-23T04:33:24;6.55;;;2.60;;
21474;SDS011;10899;53.576;9.960;2022-07-23T04:35:51;8.45;;;2.80;;
21474;SDS011;10899;53.576;9.960;2022-07-23T04:38:18;7.47;;;2.63;;
21474;SDS011;10899;53.576;9.960;2022-07-23T04:40:44;7.72;;;2.65;;
21474;SDS011;10899;53.576;9.960;2022-07-23T04:43:11;5.55;;;2.83;;
21474;SDS011;10899;53.576;9.960;2022-07-23T04:45:37;7.97;;;3.00;;
21474;SDS011;10899;53.576;9.960;2022-07-23T04:48:04;6.00;;;2.78;;
21474;SDS011;10899;53.576;9.960;2022-07-23T04:50:30;6.65;;;2.35;;
21474;SDS011;10899;53.576;9.960;2022-07-23T04:52:57;7.40;;;3.10;;
21474;SDS011;10899;53.576;9.960;2022-07-23T04:55:24;7.40;;;2.70;;
21474;SDS011;10899;53.576;9.960;2022-07-23T04:57:50;6.90;;;2.70;;
21474;SDS011;10899;53.576;9.960;2022-07-23T05:00:17;9.85;;;3.17;;
21474;SDS011;10899;53.576;9.960;2022-07-23T05:02:43;7.90;;;2.72;;
21474;SDS011;10899;53.576;9.960;2022-07-23T05:05:10;7.50;;;3.00;;
21474;SDS011;10899;53.576;9.960;2022-07-23T05:07:36;7.57;;;2.75;;
21474;SDS011;10899;53.576;9.960;2022-07-23T05:10:03;6.60;;;2.70;;
21474;SDS011;10899;53.576;9.960;2022-07-23T05:12:29;8.05;;;3.00;;
21474;SDS011;10899;53.576;9.960;2022-07-23T05:14:58;7.70;;;2.80;;
21474;SDS011;10899;53.576;9.960;2022-07-23T05:17:25;7.57;;;2.92;;
21474;SDS011;10899;53.576;9.960;2022-07-23T05:19:51;5.60;;;2.67;;
21474;SDS011;10899;53.576;9.960;2022-07-23T05:22:18;7.25;;;2.70;;
21474;SDS011;10899;53.576;9.960;2022-07-23T05:24:44;5.90;;;2.60;;
21474;SDS011;10899;53.576;9.960;2022-07-23T05:27:11;8.40;;;2.58;;
21474;SDS011;10899;53.576;9.960;2022-07-23T05:29:37;5.97;;;2.75;;
21474;SDS011;10899;53.576;9.960;2022-07-23T05:32:04;7.50;;;2.80;;
21474;SDS011;10899;53.576;9.960;2022-07-23T05:34:31;6.07;;;2.53;;
21474;SDS011;10899;53.576;9.960;2022-07-23T05:36:57;6.25;;;2.40;;
21474;SDS011;10899;53.576;9.960;2022-07-23T05:39:24;6.55;;;2.20;;
21474;SDS011;10899;53.576;9.960;2022-07-23T05:41:50;6.60;;;2.50;;
21474;SDS011;10899;53.576;9.960;2022-07-23T05:44:17;5.93;;;2.80;;
21474;SDS011;10899;53.576;9.960;2022-07-23T05:46:43;7.25;;;3.00;;
21474;SDS011;10899;53.576;9.960;2022-07-23T05:49:10;6.93;;;2.40;;
21474;SDS011;10899;53.576;9.960;2022-07-23T05:51:36;6.30;;;2.38;;
21474;SDS011;10899;53.576;9.960;2022-07-23T05:54:03;6.40;;;2.63;;
21474;SDS011;10899;53.576;9.960;2022-07-23T05:56:30;8.32;;;3.15;;
21474;SDS011;10899;53.576;9.960;2022-07-23T05:58:56;6.30;;;3.20;;
21474;SDS011;10899;53.576;9.960;2022-07-23T06:01:23;5.63;;;2.70;;
21474;SDS011;10899;53.576;9.960;2022-07-23T06:03:49;6.55;;;2.70;;
21474;SDS011;10899;53.576;9.960;2022-07-23T06:06:16;6.15;;;2.50;;
21474;SDS011;10899;53.576;9.960;2022-07-23T06:08:42;6.75;;;2.60;;
21474;SDS011;10899;53.576;9.960;2022-07-23T06:11:09;5.10;;;2.50;;
21474;SDS011;10899;53.576;9.960;2022-07-23T06:13:35;6.18;;;3.05;;
21474;SDS011;10899;53.576;9.960;2022-07-23T06:16:02;6.57;;;2.92;;
21474;SDS011;10899;53.576;9.960;2022-07-23T06:18:28;6.03;;;2.70;;
21474;SDS011;10899;53.576;9.960;2022-07-23T06:20:55;6.93;;;2.65;;
21474;SDS011;10899;53.576;9.960;2022-07-23T06:23:21;5.40;;;2.80;;
21474;SDS011;10899;53.576;9.960;2022-07-23T06:25:48;5.25;;;2.63;;
21474;SDS011;10899;53.576;9.960;2022-07-23T06:28:14;4.80;;;2.40;;
21474;SDS011;10899;53.576;9.960;2022-07-23T06:30:41;6.10;;;2.90;;
21474;SDS011;10899;53.576;9.960;2022-07-23T06:33:08;5.68;;;2.47;;
21474;SDS011;10899;53.576;9.960;2022-07-23T06:35:36;7.53;;;2.70;;
21474;SDS011;10899;53.576;9.960;2022-07-23T06:38:03;6.90;;;2.25;;
21474;SDS011;10899;53.576;9.960;2022-07-23T06:40:29;6.25;;;2.78;;
21474;SDS011;10899;53.576;9.960;2022-07-23T06:42:56;7.15;;;2.83;;
21474;SDS011;10899;53.576;9.960;2022-07-23T06:45:22;5.28;;;2.38;;
21474;SDS011;10899;53.576;9.960;2022-07-23T06:47:49;5.20;;;2.63;;
21474;SDS011;10899;53.576;9.960;2022-07-23T06:50:16;6.40;;;2.60;;
21474;SDS011;10899;53.576;9.960;2022-07-23T06:52:42;5.07;;;2.58;;
21474;SDS011;10899;53.576;9.960;2022-07-23T06:55:09;5.30;;;2.40;;
21474;SDS011;10899;53.576;9.960;2022-07-23T06:57:36;5.43;;;2.75;;
21474;SDS011;10899;53.576;9.960;2022-07-23T07:00:03;4.70;;;2.38;;
21474;SDS011;10899;53.576;9.960;2022-07-23T07:02:30;8.52;;;2.63;;
21474;SDS011;10899;53.576;9.960;2022-07-23T07:04:56;5.88;;;2.33;;
21474;SDS011;10899;53.576;9.960;2022-07-23T07:07:23;4.65;;;2.45;;
21474;SDS011;10899;53.576;9.960;2022-07-23T07:09:49;6.32;;;2.35;;
21474;SDS011;10899;53.576;9.960;2022-07-23T07:12:16;4.63;;;2.40;;
21474;SDS011;10899;53.576;9.960;2022-07-23T07:14:42;4.70;;;2.28;;
21474;SDS011;10899;53.576;9.960;2022-07-23T07:17:09;5.93;;;2.03;;
21474;SDS011;10899;53.576;9.960;2022-07-23T07:19:39;3.63;;;2.08;;
21474;SDS011;10899;53.576;9.960;2022-07-23T07:22:06;5.43;;;2.30;;
21474;SDS011;10899;53.576;9.960;2022-07-23T07:24:32;5.43;;;2.20;;
21474;SDS011;10899;53.576;9.960;2022-07-23T07:26:59;6.25;;;2.70;;
21474;SDS011;10899;53.576;9.960;2022-07-23T07:29:25;4.47;;;1.92;;
21474;SDS011;10899;53.576;9.960;2022-07-23T07:31:53;6.78;;;2.28;;
21474;SDS011;10899;53.576;9.960;2022-07-23T07:34:20;5.22;;;2.25;;
21474;SDS011;10899;53.576;9.960;2022-07-23T07:36:46;4.43;;;2.22;;
21474;SDS011;10899;53.576;9.960;2022-07-23T07:39:13;7.13;;;2.70;;
21474;SDS011;10899;53.576;9.960;2022-07-23T07:41:39;4.63;;;2.03;;
21474;SDS011;10899;53.576;9.960;2022-07-23T07:44:06;4.38;;;2.10;;
21474;SDS011;10899;53.576;9.960;2022-07-23T07:46:32;4.15;;;2.17;;
21474;SDS011;10899;53.576;9.960;2022-07-23T07:48:59;4.75;;;2.40;;
21474;SDS011;10899;53.576;9.960;2022-07-23T07:51:26;6.68;;;2.20;;
21474;SDS011;10899;53.576;9.960;2022-07-23T07:53:54;7.47;;;2.38;;
21474;SDS011;10899;53.576;9.960;2022-07-23T07:56:21;4.03;;;2.28;;
21474;SDS011;10899;53.576;9.960;2022-07-23T07:58:47;3.80;;;1.83;;
21474;SDS011;10899;53.576;9.960;2022-07-23T08:01:14;5.63;;;2.33;;
21474;SDS011;10899;53.576;9.960;2022-07-23T08:03:40;3.30;;;1.95;;
21474;SDS011;10899;53.576;9.960;2022-07-23T08:06:07;5.65;;;2.25;;
21474;SDS011;10899;53.576;9.960;2022-07-23T08:08:34;3.30;;;1.63;;
21474;SDS011;10899;53.576;9.960;2022-07-23T08:11:00;4.05;;;2.15;;
21474;SDS011;10899;53.576;9.960;2022-07-23T08:13:27;4.43;;;1.92;;
21474;SDS011;10899;53.576;9.960;2022-07-23T08:15:53;5.63;;;1.80;;
21474;SDS011;10899;53.576;9.960;2022-07-23T08:18:20;3.65;;;2.05;;
21474;SDS011;10899;53.576;9.960;2022-07-23T08:20:46;4.30;;;1.90;;
21474;SDS011;10899;53.576;9.960;2022-07-23T08:23:13;3.97;;;1.83;;
21474;SDS011;10899;53.576;9.960;2022-07-23T08:25:41;3.53;;;1.83;;
21474;SDS011;10899;53.576;9.960;2022-07-23T08:28:09;3.03;;;1.73;;
21474;SDS011;10899;53.576;9.960;2022-07-23T08:30:36;5.35;;;2.47;;
21474;SDS011;10899;53.576;9.960;2022-07-23T08:33:04;5.88;;;1.88;;
21474;SDS011;10899;53.576;9.960;2022-07-23T08:35:36;3.50;;;1.95;;
21474;SDS011;10899;53.576;9.960;2022-07-23T08:38:05;3.60;;;1.98;;
21474;SDS011;10899;53.576;9.960;2022-07-23T08:40:32;7.38;;;2.33;;
21474;SDS011;10899;53.576;9.960;2022-07-23T08:42:59;3.20;;;1.60;;
21474;SDS011;10899;53.576;9.960;2022-07-23T08:45:26;4.35;;;1.85;;
21474;SDS011;10899;53.576;9.960;2022-07-23T08:47:57;3.63;;;1.60;;
21474;SDS011;10899;53.576;9.960;2022-07-23T08:50:24;4.80;;;1.77;;
21474;SDS011;10899;53.576;9.960;2022-07-23T08:52:51;3.30;;;1.88;;
21474;SDS011;10899;53.576;9.960;2022-07-23T08:55:19;4.30;;;1.65;;
21474;SDS011;10899;53.576;9.960;2022-07-23T08:57:47;5.30;;;1.85;;
21474;SDS011;10899;53.576;9.960;2022-07-23T09:00:14;3.72;;;2.00;;
21474;SDS011;10899;53.576;9.960;2022-07-23T09:02:41;3.47;;;1.85;;
21474;SDS011;10899;53.576;9.960;2022-07-23T09:05:09;3.55;;;1.70;;
21474;SDS011;10899;53.576;9.960;2022-07-23T09:07:37;4.57;;;1.90;;
21474;SDS011;10899;53.576;9.960;2022-07-23T09:10:04;3.70;;;2.10;;
21474;SDS011;10899;53.576;9.960;2022-07-23T09:12:31;3.33;;;2.20;;
21474;SDS011;10899;53.576;9.960;2022-07-23T09:15:01;3.90;;;1.88;;
21474;SDS011;10899;53.576;9.960;2022-07-23T09:17:29;3.78;;;1.70;;
21474;SDS011;10899;53.576;9.960;2022-07-23T09:20:12;3.72;;;1.80;;
21474;SDS011;10899;53.576;9.960;2022-07-23T09:22:40;2.45;;;1.60;;
21474;SDS011;10899;53.576;9.960;2022-07-23T09:25:18;4.55;;;1.85;;
21474;SDS011;10899;53.576;9.960;2022-07-23T09:27:45;3.55;;;1.70;;
21474;SDS011;10899;53.576;9.960;2022-07-23T09:30:12;2.65;;;1.42;;
21474;SDS011;10899;53.576;9.960;2022-07-23T09:32:39;3.03;;;1.70;;
21474;SDS011;10899;53.576;9.960;2022-07-23T09:35:06;1.98;;;1.50;;
21474;SDS011;10899;53.576;9.960;2022-07-23T09:37:32;4.40;;;1.80;;
21474;SDS011;10899;53.576;9.960;2022-07-23T09:40:09;2.08;;;1.40;;
21474;SDS011;10899;53.576;9.960;2022-07-23T09:42:41;3.05;;;1.45;;
21474;SDS011;10899;53.576;9.960;2022-07-23T09:45:21;2.90;;;1.30;;
21474;SDS011;10899;53.576;9.960;2022-07-23T09:47:47;3.47;;;1.60;;
21474;SDS011;10899;53.576;9.960;2022-07-23T09:50:14;3.25;;;1.70;;
21474;SDS011;10899;53.576;9.960;2022-07-23T09:52:42;2.70;;;1.60;;
21474;SDS011;10899;53.576;9.960;2022-07-23T09:55:09;2.80;;;1.67;;
21474;SDS011;10899;53.576;9.960;2022-07-23T09:57:37;2.47;;;1.48;;
21474;SDS011;10899;53.576;9.960;2022-07-23T10:00:05;1.98;;;1.38;;
21474;SDS011;10899;53.576;9.960;2022-07-23T10:02:34;3.35;;;1.55;;
21474;SDS011;10899;53.576;9.960;2022-07-23T10:05:01;2.63;;;1.55;;
21474;SDS011;10899;53.576;9.960;2022-07-23T10:07:27;2.33;;;1.35;;
21474;SDS011;10899;53.576;9.960;2022-07-23T10:09:56;3.67;;;1.60;;
21474;SDS011;10899;53.576;9.960;2022-07-23T10:12:23;2.92;;;1.70;;
21474;SDS011;10899;53.576;9.960;2022-07-23T10:15:03;3.55;;;1.50;;
21474;SDS011;10899;53.576;9.960;2022-07-23T10:17:31;2.42;;;1.45;;
21474;SDS011;10899;53.576;9.960;2022-07-23T10:19:58;2.65;;;1.60;;
21474;SDS011;10899;53.576;9.960;2022-07-23T10:22:25;4.22;;;1.67;;
21474;SDS011;10899;53.576;9.960;2022-07-23T10:24:56;2.22;;;1.50;;
21474;SDS011;10899;53.576;9.960;2022-07-23T10:32:45;2.65;;;1.50;;
21474;SDS011;10899;53.576;9.960;2022-07-23T10:37:45;2.70;;;1.60;;
21474;SDS011;10899;53.576;9.960;2022-07-23T10:40:17;3.90;;;1.90;;
21474;SDS011;10899;53.576;9.960;2022-07-23T10:42:47;3.47;;;1.50;;
21474;SDS011;10899;53.576;9.960;2022-07-23T10:47:49;2.17;;;1.30;;
21474;SDS011;10899;53.576;9.960;2022-07-23T10:50:26;2.88;;;1.58;;
21474;SDS011;10899;53.576;9.960;2022-07-23T10:58:02;2.10;;;1.50;;
21474;SDS011;10899;53.576;9.960;2022-07-23T11:00:29;4.63;;;1.70;;
21474;SDS011;10899;53.576;9.960;2022-07-23T11:03:00;2.85;;;1.60;;
21474;SDS011;10899;53.576;9.960;2022-07-23T11:10:34;2.83;;;1.70;;
21474;SDS011;10899;53.576;9.960;2022-07-23T11:34:50;2.58;;;1.60;;
21474;SDS011;10899;53.576;9.960;2022-07-23T11:37:35;3.08;;;1.58;;
21474;SDS011;10899;53.576;9.960;2022-07-23T11:40:04;1.85;;;1.35;;
21474;SDS011;10899;53.576;9.960;2022-07-23T11:42:33;2.75;;;1.77;;
21474;SDS011;10899;53.576;9.960;2022-07-23T11:45:00;3.35;;;1.55;;
21474;SDS011;10899;53.576;9.960;2022-07-23T11:47:26;4.07;;;1.63;;
21474;SDS011;10899;53.576;9.960;2022-07-23T11:49:54;3.08;;;1.50;;
21474;SDS011;10899;53.576;9.960;2022-07-23T11:52:21;3.65;;;1.70;;
21474;SDS011;10899;53.576;9.960;2022-07-23T11:54:49;2.88;;;1.55;;
21474;SDS011;10899;53.576;9.960;2022-07-23T11:57:16;3.50;;;1.80;;
21474;SDS011;10899;53.576;9.960;2022-07-23T11:59:42;3.67;;;1.60;;
21474;SDS011;10899;53.576;9.960;2022-07-23T12:02:09;4.85;;;1.90;;
21474;SDS011;10899;53.576;9.960;2022-07-23T12:04:39;2.22;;;1.25;;
21474;SDS011;10899;53.576;9.960;2022-07-23T12:07:22;2.45;;;1.48;;
21474;SDS011;10899;53.576;9.960;2022-07-23T12:09:49;2.67;;;1.40;;
21474;SDS011;10899;53.576;9.960;2022-07-23T12:12:15;3.63;;;1.45;;
21474;SDS011;10899;53.576;9.960;2022-07-23T12:14:49;1.95;;;1.48;;
21474;SDS011;10899;53.576;9.960;2022-07-23T12:17:16;2.30;;;1.40;;
21474;SDS011;10899;53.576;9.960;2022-07-23T12:19:43;2.45;;;1.30;;
21474;SDS011;10899;53.576;9.960;2022-07-23T12:22:10;2.50;;;1.40;;
21474;SDS011;10899;53.576;9.960;2022-07-23T12:27:22;2.90;;;1.40;;
21474;SDS011;10899;53.576;9.960;2022-07-23T12:29:49;3.70;;;1.90;;
21474;SDS011;10899;53.576;9.960;2022-07-23T12:32:16;2.35;;;1.40;;
21474;SDS011;10899;53.576;9.960;2022-07-23T12:34:43;2.67;;;1.67;;
21474;SDS011;10899;53.576;9.960;2022-07-23T12:37:26;2.35;;;1.38;;
21474;SDS011;10899;53.576;9.960;2022-07-23T12:39:53;2.63;;;1.10;;
21474;SDS011;10899;53.576;9.960;2022-07-23T12:42:20;3.38;;;1.40;;
21474;SDS011;10899;53.576;9.960;2022-07-23T12:45:03;2.88;;;1.33;;
21474;SDS011;10899;53.576;9.960;2022-07-23T12:47:29;1.75;;;1.20;;
21474;SDS011;10899;53.576;9.960;2022-07-23T12:49:56;1.10;;;1.00;;
21474;SDS011;10899;53.576;9.960;2022-07-23T12:52:22;2.88;;;1.30;;
21474;SDS011;10899;53.576;9.960;2022-07-23T12:54:50;2.33;;;1.35;;
21474;SDS011;10899;53.576;9.960;2022-07-23T12:57:17;2.08;;;1.20;;
21474;SDS011;10899;53.576;9.960;2022-07-23T12:59:43;2.20;;;1.63;;
21474;SDS011;10899;53.576;9.960;2022-07-23T13:02:10;2.40;;;1.20;;
21474;SDS011;10899;53.576;9.960;2022-07-23T13:04:36;1.63;;;1.13;;
21474;SDS011;10899;53.576;9.960;2022-07-23T13:07:03;1.55;;;1.02;;
21474;SDS011;10899;53.576;9.960;2022-07-23T13:09:30;2.00;;;1.10;;
21474;SDS011;10899;53.576;9.960;2022-07-23T13:11:57;1.58;;;1.10;;
21474;SDS011;10899;53.576;9.960;2022-07-23T13:14:24;2.10;;;1.20;;
21474;SDS011;10899;53.576;9.960;2022-07-23T13:16:52;2.78;;;1.27;;
21474;SDS011;10899;53.576;9.960;2022-07-23T13:19:19;3.22;;;1.73;;
21474;SDS011;10899;53.576;9.960;2022-07-23T13:21:47;2.38;;;1.20;;
21474;SDS011;10899;53.576;9.960;2022-07-23T13:24:14;1.50;;;1.00;;
21474;SDS011;10899;53.576;9.960;2022-07-23T13:26:41;1.77;;;1.08;;
21474;SDS011;10899;53.576;9.960;2022-07-23T13:29:08;1.65;;;1.20;;
21474;SDS011;10899;53.576;9.960;2022-07-23T13:31:35;2.20;;;1.05;;
21474;SDS011;10899;53.576;9.960;2022-07-23T13:34:02;2.75;;;1.65;;
21474;SDS011;10899;53.576;9.960;2022-07-23T13:36:29;2.05;;;1.20;;
21474;SDS011;10899;53.576;9.960;2022-07-23T13:38:55;2.63;;;1.17;;
21474;SDS011;10899;53.576;9.960;2022-07-23T13:41:22;1.63;;;1.10;;
21474;SDS011;10899;53.576;9.960;2022-07-23T13:43:49;1.85;;;1.08;;
21474;SDS011;10899;53.576;9.960;2022-07-23T13:46:15;1.35;;;0.95;;
21474;SDS011;10899;53.576;9.960;2022-07-23T13:48:42;1.70;;;1.10;;
21474;SDS011;10899;53.576;9.960;2022-07-23T13:51:08;2.38;;;1.20;;
21474;SDS011;10899;53.576;9.960;2022-07-23T13:53:35;2.42;;;0.90;;
21474;SDS011;10899;53.576;9.960;2022-07-23T13:56:01;2.35;;;1.00;;
21474;SDS011;10899;53.576;9.960;2022-07-23T13:58:28;1.30;;;0.93;;
21474;SDS011;10899;53.576;9.960;2022-07-23T14:00:55;2.17;;;1.20;;
21474;SDS011;10899;53.576;9.960;2022-07-23T14:03:21;2.08;;;1.15;;
21474;SDS011;10899;53.576;9.960;2022-07-23T14:05:48;1.52;;;0.98;;
21474;SDS011;10899;53.576;9.960;2022-07-23T14:08:15;1.63;;;1.13;;
21474;SDS011;10899;53.576;9.960;2022-07-23T14:10:42;1.90;;;0.98;;
21474;SDS011;10899;53.576;9.960;2022-07-23T14:13:08;1.33;;;1.10;;
21474;SDS011;10899;53.576;9.960;2022-07-23T14:15:35;1.33;;;1.20;;
21474;SDS011;10899;53.576;9.960;2022-07-23T14:18:03;1.60;;;1.00;;
21474;SDS011;10899;53.576;9.960;2022-07-23T14:20:30;1.58;;;1.00;;
21474;SDS011;10899;53.576;9.960;2022-07-23T14:22:56;1.48;;;0.90;;
21474;SDS011;10899;53.576;9.960;2022-07-23T14:25:25;1.15;;;1.05;;
21474;SDS011;10899;53.576;9.960;2022-07-23T14:27:52;1.08;;;0.98;;
21474;SDS011;10899;53.576;9.960;2022-07-23T14:30:19;1.33;;;1.00;;
21474;SDS011;10899;53.576;9.960;2022-07-23T14:32:48;1.23;;;1.00;;
21474;SDS011;10899;53.576;9.960;2022-07-23T14:35:14;1.83;;;1.15;;
21474;SDS011;10899;53.576;9.960;2022-07-23T14:37:41;2.33;;;1.10;;
21474;SDS011;10899;53.576;9.960;2022-07-23T14:40:08;1.95;;;1.20;;
21474;SDS011;10899;53.576;9.960;2022-07-23T14:42:34;1.50;;;0.90;;
21474;SDS011;10899;53.576;9.960;2022-07-23T14:45:01;1.95;;;0.93;;
21474;SDS011;10899;53.576;9.960;2022-07-23T14:47:29;0.80;;;0.80;;
21474;SDS011;10899;53.576;9.960;2022-07-23T14:49:56;1.58;;;0.90;;
21474;SDS011;10899;53.576;9.960;2022-07-23T14:52:22;2.25;;;1.13;;
21474;SDS011;10899;53.576;9.960;2022-07-23T14:54:49;1.80;;;1.00;;
21474;SDS011;10899;53.576;9.960;2022-07-23T14:57:15;1.42;;;1.02;;
21474;SDS011;10899;53.576;9.960;2022-07-23T14:59:42;1.55;;;1.00;;
21474;SDS011;10899;53.576;9.960;2022-07-23T15:02:08;1.10;;;1.00;;
21474;SDS011;10899;53.576;9.960;2022-07-23T15:04:35;1.60;;;1.00;;
21474;SDS011;10899;53.576;9.960;2022-07-23T15:07:02;1.20;;;0.90;;
21474;SDS011;10899;53.576;9.960;2022-07-23T15:09:29;1.95;;;1.02;;
21474;SDS011;10899;53.576;9.960;2022-07-23T15:11:55;1.75;;;1.13;;
21474;SDS011;10899;53.576;9.960;2022-07-23T15:14:22;2.30;;;1.20;;
21474;SDS011;10899;53.576;9.960;2022-07-23T15:16:48;1.35;;;0.80;;
21474;SDS011;10899;53.576;9.960;2022-07-23T15:19:15;3.25;;;1.15;;
21474;SDS011;10899;53.576;9.960;2022-07-23T15:21:41;2.83;;;1.05;;
21474;SDS011;10899;53.576;9.960;2022-07-23T15:24:08;1.88;;;0.70;;
21474;SDS011;10899;53.576;9.960;2022-07-23T15:26:34;1.13;;;1.00;;
21474;SDS011;10899;53.576;9.960;2022-07-23T15:29:01;1.55;;;0.93;;
21474;SDS011;10899;53.576;9.960;2022-07-23T15:31:28;1.75;;;1.08;;
21474;SDS011;10899;53.576;9.960;2022-07-23T15:33:55;0.90;;;0.80;;